Time,TemperatureF,DewpointF,PressureIn,WindDirection,WindDirectionDegrees,WindSpeedMPH,WindSpeedGustMPH,Humidity,HourlyPrecipIn,Conditions,Clouds,dailyrainin,SoftwareType,DateUTC
2013-08-09 00:01:00,72.0,71.0,-100.00,SE,130,0.0,3.0,98,0.00,,,-99.99,,2013-08-09 04:01:00,
2013-08-09 00:53:00,71.0,70.0,-100.00,NW,305,0.0,1.0,98,0.00,,,-99.99,,2013-08-09 04:53:00,
2013-08-09 01:02:00,71.0,70.0,-100.00,WNW,290,0.0,1.0,99,0.00,,,-99.99,,2013-08-09 05:02:00,
2013-08-09 01:22:00,71.0,70.0,-100.00,NW,315,1.0,2.0,99,0.00,,,-99.99,,2013-08-09 05:22:00,
2013-08-09 01:32:00,71.0,70.0,-100.00,NW,310,1.0,1.0,98,0.00,,,-99.99,,2013-08-09 05:32:00,
2013-08-09 01:43:00,71.0,70.0,-100.00,NW,310,1.0,1.0,98,0.00,,,-99.99,,2013-08-09 05:43:00,
2013-08-09 02:32:00,70.0,69.0,-100.00,SW,215,1.0,1.0,98,0.00,,,-99.99,,2013-08-09 06:32:00,
2013-08-09 02:43:00,70.0,70.0,-100.00,WSW,245,1.0,3.0,98,0.00,,,-99.99,,2013-08-09 06:43:00,
2013-08-09 02:52:00,70.0,70.0,-100.00,SW,225,1.0,2.0,99,0.55,,,-99.99,,2013-08-09 06:52:00,
2013-08-09 03:01:00,70.0,70.0,-100.00,WSW,245,1.0,3.0,99,0.00,,,-99.99,,2013-08-09 07:01:00,
2013-08-09 03:12:00,70.0,69.0,-100.00,SW,235,2.0,4.0,99,1.10,,,-99.99,,2013-08-09 07:12:00,
2013-08-09 03:22:00,70.0,69.0,-100.00,SW,230,1.0,4.0,99,0.55,,,-99.99,,2013-08-09 07:22:00,
2013-08-09 03:33:00,70.0,69.0,-100.00,WSW,240,3.0,4.0,99,0.55,,,-99.99,,2013-08-09 07:33:00,
2013-08-09 03:43:00,70.0,70.0,-100.00,SW,230,3.0,6.0,99,1.10,,,-99.99,,2013-08-09 07:43:00,
2013-08-09 03:53:00,70.0,70.0,-100.00,West,270,1.0,3.0,99,1.10,,,-99.99,,2013-08-09 07:53:00,
2013-08-09 04:02:00,70.0,70.0,-100.00,NNW,330,1.0,3.0,99,1.10,,,-99.99,,2013-08-09 08:02:00,
2013-08-09 04:12:00,70.0,70.0,-100.00,NW,320,1.0,2.0,99,0.55,,,-99.99,,2013-08-09 08:12:00,
2013-08-09 04:32:00,70.0,69.0,-100.00,NW,310,0.0,2.0,99,0.00,,,-99.99,,2013-08-09 08:32:00,
2013-08-09 04:43:00,70.0,69.0,-100.00,WSW,245,1.0,2.0,99,0.00,,,-99.99,,2013-08-09 08:43:00,
2013-08-09 04:53:00,70.0,70.0,-100.00,NW,325,0.0,3.0,99,0.55,,,-99.99,,2013-08-09 08:53:00,
2013-08-09 05:32:00,70.0,70.0,-100.00,West,280,1.0,1.0,99,0.00,,,-99.99,,2013-08-09 09:32:00,
2013-08-09 06:01:00,70.0,70.0,-100.00,West,260,2.0,2.0,99,0.00,,,-99.99,,2013-08-09 10:01:00,
2013-08-09 06:12:00,70.0,70.0,-100.00,WSW,240,2.0,3.0,99,0.00,,,-99.99,,2013-08-09 10:12:00,
2013-08-09 06:32:00,70.0,69.0,-100.00,WSW,255,2.0,3.0,99,0.00,,,-99.99,,2013-08-09 10:32:00,
2013-08-09 06:43:00,70.0,69.0,-100.00,West,265,1.0,5.0,99,0.00,,,-99.99,,2013-08-09 10:43:00,
2013-08-09 07:02:00,70.0,69.0,-100.00,West,260,2.0,3.0,99,0.00,,,-99.99,,2013-08-09 11:02:00,
2013-08-09 08:12:00,70.0,70.0,-100.00,West,270,3.0,6.0,99,0.00,,,-99.99,,2013-08-09 12:12:00,
2013-08-09 08:22:00,70.0,70.0,-100.00,WNW,300,2.0,5.0,99,0.00,,,-99.99,,2013-08-09 12:22:00,
2013-08-09 08:32:00,70.0,70.0,-100.00,West,275,1.0,5.0,99,0.00,,,-99.99,,2013-08-09 12:32:00,
2013-08-09 08:43:00,70.0,70.0,-100.00,West,265,2.0,4.0,99,0.00,,,-99.99,,2013-08-09 12:43:00,
2013-08-09 10:02:00,71.0,71.0,-100.00,WSW,250,6.0,9.0,98,0.00,,,-99.99,,2013-08-09 14:02:00,
2013-08-09 10:33:00,73.0,72.0,-100.00,WSW,240,4.0,7.0,97,0.00,,,-99.99,,2013-08-09 14:33:00,
2013-08-09 10:43:00,73.0,71.0,-100.00,WSW,245,7.0,9.0,95,0.00,,,-99.99,,2013-08-09 14:43:00,
2013-08-09 11:33:00,73.0,71.0,-100.00,WSW,255,4.0,8.0,93,0.00,,,-99.99,,2013-08-09 15:33:00,
2013-08-09 11:53:00,73.0,71.0,-100.00,West,280,4.0,9.0,95,0.00,,,-99.99,,2013-08-09 15:53:00,
2013-08-09 12:01:00,68.0,67.0,-100.00,NW,325,7.0,12.0,95,0.55,,,-99.99,,2013-08-09 16:01:00,
2013-08-09 12:11:00,68.0,67.0,-100.00,NW,325,7.0,12.0,95,0.55,,,-99.99,,2013-08-09 16:11:00,
2013-08-09 13:11:00,67.0,67.0,-100.00,NNE,25,2.0,4.0,98,0.55,,,-99.99,,2013-08-09 17:11:00,
2013-08-09 14:01:00,71.0,68.0,-100.00,NNW,335,1.0,3.0,89,0.00,,,-99.99,,2013-08-09 18:01:00,
2013-08-09 15:02:00,75.0,70.0,-100.00,SSW,205,1.0,3.0,84,0.00,,,-99.99,,2013-08-09 19:02:00,
2013-08-09 15:22:00,75.0,69.0,-100.00,WNW,295,2.0,3.0,81,0.00,,,-99.99,,2013-08-09 19:22:00,
2013-08-09 15:32:00,73.0,70.0,-100.00,SW,220,1.0,6.0,88,0.00,,,-99.99,,2013-08-09 19:32:00,
2013-08-09 15:43:00,75.0,71.0,-100.00,WSW,245,1.0,4.0,87,0.00,,,-99.99,,2013-08-09 19:43:00,
2013-08-09 15:52:00,75.0,71.0,-100.00,WSW,245,1.0,4.0,87,0.00,,,-99.99,,2013-08-09 19:52:00,
2013-08-09 16:02:00,75.0,71.0,-100.00,WSW,245,1.0,4.0,87,0.00,,,-99.99,,2013-08-09 20:02:00,
2013-08-09 16:11:00,78.0,68.0,-100.00,WSW,250,4.0,6.0,70,0.00,,,-99.99,,2013-08-09 20:11:00,
2013-08-09 16:22:00,78.0,68.0,-100.00,WSW,250,4.0,6.0,70,0.00,,,-99.99,,2013-08-09 20:22:00,
2013-08-09 16:32:00,78.0,67.0,-100.00,WNW,290,5.0,9.0,68,0.00,,,-99.99,,2013-08-09 20:32:00,
2013-08-09 16:43:00,79.0,67.0,-100.00,WNW,295,4.0,9.0,67,0.00,,,-99.99,,2013-08-09 20:43:00,
2013-08-09 17:01:00,78.0,67.0,-100.00,NW,325,1.0,8.0,68,0.00,,,-99.99,,2013-08-09 21:01:00,
2013-08-09 17:12:00,78.0,67.0,-100.00,NW,325,1.0,8.0,68,0.00,,,-99.99,,2013-08-09 21:12:00,
2013-08-09 17:22:00,79.0,66.0,-100.00,WNW,295,3.0,7.0,65,0.00,,,-99.99,,2013-08-09 21:22:00,
2013-08-09 17:33:00,79.0,67.0,-100.00,WNW,290,2.0,9.0,65,0.00,,,-99.99,,2013-08-09 21:33:00,
2013-08-09 17:43:00,78.0,61.0,-100.00,NW,315,4.0,9.0,57,0.00,,,-99.99,,2013-08-09 21:43:00,
2013-08-09 18:11:00,78.0,62.0,-100.00,West,270,2.0,7.0,58,0.00,,,-99.99,,2013-08-09 22:11:00,
2013-08-09 18:42:00,79.0,62.0,-100.00,West,260,5.0,7.0,56,0.00,,,-99.99,,2013-08-09 22:42:00,
2013-08-09 19:02:00,78.0,62.0,-100.00,NNW,335,3.0,6.0,58,0.00,,,-99.99,,2013-08-09 23:02:00,
2013-08-09 19:32:00,78.0,64.0,-100.00,WSW,250,3.0,5.0,60,0.00,,,-99.99,,2013-08-09 23:32:00,
2013-08-09 19:52:00,76.0,64.0,-100.00,West,270,3.0,6.0,64,0.00,,,-99.99,,2013-08-09 23:52:00,
2013-08-09 20:01:00,76.0,64.0,-100.00,WNW,285,2.0,4.0,66,0.00,,,-99.99,,2013-08-10 00:01:00,
2013-08-09 20:33:00,74.0,64.0,-100.00,NW,315,1.0,3.0,71,0.00,,,-99.99,,2013-08-10 00:33:00,
2013-08-09 20:43:00,74.0,64.0,-100.00,NW,310,1.0,2.0,73,0.00,,,-99.99,,2013-08-10 00:43:00,
2013-08-09 20:52:00,72.0,64.0,-100.00,WNW,290,1.0,1.0,76,0.00,,,-99.99,,2013-08-10 00:52:00,
2013-08-09 21:01:00,72.0,65.0,-100.00,WNW,290,1.0,1.0,77,0.00,,,-99.99,,2013-08-10 01:01:00,
2013-08-09 21:11:00,72.0,64.0,-100.00,NNW,340,0.0,2.0,75,0.00,,,-99.99,,2013-08-10 01:11:00,
2013-08-09 21:32:00,70.0,64.0,-100.00,WNW,295,1.0,1.0,81,0.00,,,-99.99,,2013-08-10 01:32:00,
2013-08-09 21:42:00,70.0,64.0,-100.00,NNW,340,0.0,1.0,81,0.00,,,-99.99,,2013-08-10 01:42:00,
2013-08-09 21:52:00,69.0,64.0,-100.00,WNW,295,0.0,1.0,83,0.00,,,-99.99,,2013-08-10 01:52:00,
2013-08-09 22:03:00,70.0,64.0,-100.00,NNW,335,0.0,1.0,81,0.00,,,-99.99,,2013-08-10 02:03:00,
2013-08-09 22:11:00,69.0,65.0,-100.00,WNW,295,1.0,1.0,85,0.00,,,-99.99,,2013-08-10 02:11:00,
2013-08-09 22:21:00,69.0,64.0,-100.00,West,275,1.0,2.0,86,0.00,,,-99.99,,2013-08-10 02:21:00,
2013-08-09 22:32:00,69.0,64.0,-100.00,West,275,1.0,1.0,85,0.00,,,-99.99,,2013-08-10 02:32:00,
2013-08-09 22:42:00,68.0,64.0,-100.00,West,275,0.0,0.0,85,0.00,,,-99.99,,2013-08-10 02:42:00,
2013-08-09 22:52:00,68.0,64.0,-100.00,WNW,285,2.0,3.0,88,0.00,,,-99.99,,2013-08-10 02:52:00,
2013-08-09 23:01:00,69.0,64.0,-100.00,North,0,0.0,2.0,83,0.00,,,-99.99,,2013-08-10 03:01:00,
2013-08-09 23:11:00,68.0,65.0,-100.00,ENE,65,0.0,2.0,88,0.00,,,-99.99,,2013-08-10 03:11:00,
2013-08-09 23:22:00,68.0,64.0,-100.00,East,95,0.0,1.0,88,0.00,,,-99.99,,2013-08-10 03:22:00,
2013-08-09 23:32:00,67.0,64.0,-100.00,South,185,0.0,1.0,91,0.00,,,-99.99,,2013-08-10 03:32:00,
2013-08-09 23:42:00,67.0,64.0,-100.00,South,185,0.0,1.0,91,0.00,,,-99.99,,2013-08-10 03:42:00,
2013-08-09 23:52:00,66.0,64.0,-100.00,ENE,65,0.0,1.0,93,0.00,,,-99.99,,2013-08-10 03:52:00,